Time;durP1;ratioP1;P1;durP2;ratioP2;P2;SDS_P1;SDS_P2;PMS_P1;PMS_P2;Temp;Humidity;BMP_temperature;BMP_pressure;BME280_temperature;BME280_humidity;BME280_pressure;Samples;Min_cycle;Max_cycle;Signal;HPM_P1;HPM_P2
2022/11/24 00:00:05;;;;;;;8.48;2.80;;;;;;;9.64;100.00;97395.91;4200003;28;20212;-87
2022/11/24 00:02:09;;;;;;;5.40;2.70;;;;;;;9.64;100.00;97391.50;4198088;28;20201;-88
2022/11/24 00:04:12;;;;;;;11.95;2.90;;;;;;;9.59;100.00;97393.63;4205348;28;20731;-87
2022/11/24 00:06:16;;;;;;;7.90;3.28;;;;;;;9.60;100.00;97391.84;4184451;28;20209;-87
2022/11/24 00:08:19;;;;;;;8.93;3.50;;;;;;;9.57;100.00;97389.47;4202682;28;20212;-87
2022/11/24 00:10:22;;;;;;;11.35;3.05;;;;;;;9.56;100.00;97383.47;4185782;28;20644;-87
2022/11/24 00:12:25;;;;;;;7.95;3.10;;;;;;;9.59;100.00;97392.78;4200139;28;20216;-88
2022/11/24 00:14:28;;;;;;;9.37;3.20;;;;;;;9.64;100.00;97403.72;4186663;28;20205;-87
2022/11/24 00:16:33;;;;;;;10.10;3.20;;;;;;;9.62;100.00;97400.38;4200756;28;20677;-88
2022/11/24 00:18:38;;;;;;;11.65;3.55;;;;;;;9.65;100.00;97402.75;4202951;28;20786;-88
2022/11/24 00:20:41;;;;;;;9.57;3.25;;;;;;;9.65;100.00;97392.31;4200753;28;20229;-87
2022/11/24 00:22:44;;;;;;;8.75;4.63;;;;;;;9.68;100.00;97399.91;4184790;28;20233;-87
2022/11/24 00:24:47;;;;;;;12.10;4.43;;;;;;;9.68;100.00;97402.50;4202212;28;20213;-87
2022/11/24 00:26:50;;;;;;;8.20;3.60;;;;;;;9.70;100.00;97403.25;4197886;28;20230;-87
2022/11/24 00:28:55;;;;;;;17.63;3.45;;;;;;;9.71;100.00;97410.94;4197989;28;20701;-87
2022/11/24 00:30:58;;;;;;;7.25;3.50;;;;;;;9.71;100.00;97412.69;4185028;28;20256;-87
2022/11/24 00:33:01;;;;;;;10.67;3.47;;;;;;;9.69;100.00;97409.38;4186569;28;20256;-87
2022/11/24 00:35:06;;;;;;;14.70;3.90;;;;;;;9.68;100.00;97412.94;4198367;28;20640;-87
2022/11/24 00:37:09;;;;;;;12.33;3.00;;;;;;;9.65;100.00;97408.78;4199249;28;20635;-88
2022/11/24 00:39:14;;;;;;;8.37;3.00;;;;;;;9.62;100.00;97413.38;4196257;28;21419;-87
2022/11/24 00:41:17;;;;;;;10.57;3.80;;;;;;;9.59;100.00;97411.88;4200857;28;20632;-87
2022/11/24 00:43:20;;;;;;;9.63;3.30;;;;;;;9.54;99.39;97415.75;4200753;28;20655;-87
2022/11/24 00:45:23;;;;;;;8.15;3.10;;;;;;;9.51;99.33;97408.97;4196091;28;20652;-87
2022/11/24 00:47:27;;;;;;;17.00;2.70;;;;;;;9.50;99.67;97415.16;4199634;28;20193;-87
2022/11/24 00:49:30;;;;;;;8.70;2.70;;;;;;;9.51;99.76;97415.97;4199532;28;20684;-87
2022/11/24 00:51:35;;;;;;;8.45;2.90;;;;;;;9.49;99.86;97417.88;4181438;28;20230;-86
2022/11/24 00:53:38;;;;;;;14.75;4.05;;;;;;;9.49;99.36;97423.06;4182608;28;20630;-87
2022/11/24 00:55:41;;;;;;;18.33;7.03;;;;;;;9.47;100.00;97433.59;4187496;28;20229;-87
2022/11/24 00:57:44;;;;;;;24.60;10.73;;;;;;;9.48;100.00;97432.63;4189594;28;20218;-87
2022/11/24 00:59:47;;;;;;;15.67;4.63;;;;;;;9.50;100.00;97429.91;4186111;28;20760;-87
2022/11/24 01:01:50;;;;;;;15.50;5.40;;;;;;;9.51;100.00;97439.41;4199427;28;20653;-87
2022/11/24 01:03:54;;;;;;;14.57;5.10;;;;;;;9.50;99.97;97437.72;4200237;28;20705;-87
2022/11/24 01:06:03;;;;;;;14.30;4.78;;;;;;;9.50;100.00;97446.38;4192157;28;20689;-86
2022/11/24 01:08:07;;;;;;;13.47;4.90;;;;;;;9.49;100.00;97442.13;4203563;28;20213;-87
2022/11/24 01:10:10;;;;;;;11.17;4.70;;;;;;;9.48;100.00;97450.03;4187188;28;20998;-87
2022/11/24 01:12:13;;;;;;;7.95;3.47;;;;;;;9.48;99.96;97457.84;4182228;28;20645;-87
2022/11/24 01:14:16;;;;;;;12.13;4.10;;;;;;;9.46;100.00;97449.31;4196647;28;20209;-87
2022/11/24 01:16:22;;;;;;;7.30;4.27;;;;;;;9.48;100.00;97452.63;4199130;28;20628;-87
2022/11/24 01:18:25;;;;;;;9.40;4.53;;;;;;;9.46;99.53;97454.53;4203372;28;20646;-87
2022/11/24 01:20:28;;;;;;;8.10;3.67;;;;;;;9.46;99.93;97457.13;4193153;28;21054;-87
2022/11/24 01:22:31;;;;;;;11.47;3.97;;;;;;;9.44;100.00;97456.41;4207828;28;20201;-87
2022/11/24 01:24:36;;;;;;;10.57;4.20;;;;;;;9.45;100.00;97463.28;4196664;28;20676;-87
2022/11/24 01:26:39;;;;;;;9.63;4.10;;;;;;;9.43;99.42;97465.16;4202333;28;20666;-87
2022/11/24 01:28:42;;;;;;;11.25;3.20;;;;;;;9.41;99.82;97464.44;4193517;28;20216;-87
2022/11/24 01:30:57;;;;;;;7.30;3.38;;;;;;;9.40;100.00;97465.41;4201117;28;20209;-87
2022/11/24 01:33:00;;;;;;;8.63;2.97;;;;;;;9.39;99.32;97468.94;4185789;28;20229;-87
2022/11/24 01:35:03;;;;;;;8.85;3.53;;;;;;;9.41;99.52;97478.28;4186143;28;20209;-88
2022/11/24 01:37:06;;;;;;;9.40;3.43;;;;;;;9.40;99.22;97475.81;4210084;28;20871;-87
2022/11/24 01:39:09;;;;;;;8.77;3.25;;;;;;;9.38;98.96;97472.47;4185645;28;21189;-87
2022/11/24 01:41:16;;;;;;;8.10;3.53;;;;;;;9.39;99.13;97476.72;4205460;28;20208;-87
2022/11/24 01:43:20;;;;;;;9.03;3.57;;;;;;;9.39;98.66;97474.13;4205237;28;20294;-87
2022/11/24 01:45:39;;;;;;;11.33;3.20;;;;;;;9.37;99.08;97475.19;4181881;28;20754;-87
2022/11/24 01:47:43;;;;;;;7.67;2.87;;;;;;;9.36;99.21;97476.97;4183227;28;20635;-87
2022/11/24 01:49:47;;;;;;;7.80;3.65;;;;;;;9.36;98.91;97473.53;4182921;28;20643;-87
2022/11/24 01:51:53;;;;;;;13.25;3.65;;;;;;;9.35;98.82;97479.66;4202803;28;20205;-87
2022/11/24 01:53:59;;;;;;;9.73;3.10;;;;;;;9.37;99.39;97488.19;4202894;28;20252;-87
2022/11/24 01:56:03;;;;;;;7.60;3.50;;;;;;;9.37;98.43;97488.19;4186592;28;20628;-87
2022/11/24 01:58:10;;;;;;;11.77;3.23;;;;;;;9.38;99.01;97485.47;4197161;28;20674;-87
2022/11/24 02:00:15;;;;;;;6.33;2.40;;;;;;;9.36;99.15;97495.19;4200391;28;21205;-87
2022/11/24 02:02:19;;;;;;;6.50;2.60;;;;;;;9.34;98.87;97489.25;4185358;28;20650;-87
2022/11/24 02:04:25;;;;;;;7.40;2.20;;;;;;;9.33;98.20;97497.19;4199756;28;21361;-87
2022/11/24 02:06:30;;;;;;;9.23;2.67;;;;;;;9.29;98.02;97488.78;4191689;28;20639;-87
2022/11/24 02:08:40;;;;;;;10.30;2.75;;;;;;;9.30;97.80;97493.03;4186877;28;20628;-87
2022/11/24 02:10:44;;;;;;;8.30;2.20;;;;;;;9.29;97.82;97496.59;4197072;28;20234;-87
2022/11/24 02:12:49;;;;;;;11.53;2.50;;;;;;;9.24;97.91;97493.47;4199833;28;21102;-87
2022/11/24 02:14:54;;;;;;;11.52;2.63;;;;;;;9.22;97.82;97503.16;4207811;28;21427;-87
2022/11/24 02:16:57;;;;;;;10.27;2.60;;;;;;;9.23;98.16;97496.19;4181978;28;20263;-87
2022/11/24 02:19:01;;;;;;;6.80;2.27;;;;;;;9.25;98.15;97508.13;4198603;28;20302;-87
2022/11/24 02:21:04;;;;;;;9.90;2.45;;;;;;;9.29;97.57;97513.94;4184100;28;20645;-87
2022/11/24 02:23:15;;;;;;;10.80;2.85;;;;;;;9.31;97.68;97506.88;4193041;28;20259;-87
2022/11/24 02:25:24;;;;;;;10.70;2.95;;;;;;;9.36;97.54;97508.19;4186188;28;20216;-87
2022/11/24 02:27:28;;;;;;;11.43;2.60;;;;;;;9.38;97.77;97514.09;4188309;28;20255;-87
2022/11/24 02:29:32;;;;;;;5.55;2.28;;;;;;;9.39;97.46;97519.19;4190724;28;20209;-87
2022/11/24 02:31:35;;;;;;;9.43;2.30;;;;;;;9.39;97.27;97516.59;4200060;28;20235;-87
2022/11/24 02:33:38;;;;;;;11.15;3.78;;;;;;;9.39;96.98;97515.78;4200896;28;20669;-87
2022/11/24 02:35:41;;;;;;;5.20;2.40;;;;;;;9.38;97.29;97511.50;4188130;28;20205;-88
2022/11/24 02:37:44;;;;;;;10.57;2.75;;;;;;;9.38;97.34;97516.69;4191098;28;20198;-87
2022/11/24 02:39:47;;;;;;;5.70;2.23;;;;;;;9.36;97.01;97526.41;4199481;28;20210;-87
2022/11/24 02:41:52;;;;;;;7.75;2.20;;;;;;;9.35;97.01;97521.31;4189395;28;21197;-87
2022/11/24 02:43:59;;;;;;;6.18;2.15;;;;;;;9.31;97.49;97517.28;4187549;28;20202;-87
2022/11/24 02:46:02;;;;;;;9.23;2.50;;;;;;;9.31;97.38;97520.72;4187446;28;20224;-87
2022/11/24 02:48:05;;;;;;;7.35;3.00;;;;;;;9.32;96.71;97522.38;4204078;28;20205;-87
2022/11/24 02:50:09;;;;;;;6.18;2.63;;;;;;;9.31;96.84;97517.28;4203429;28;20612;-88
2022/11/24 02:52:12;;;;;;;5.95;2.30;;;;;;;9.31;97.49;97518.09;4203126;28;20304;-87
2022/11/24 02:54:15;;;;;;;8.33;2.30;;;;;;;9.33;97.04;97521.41;4200101;28;20233;-87
2022/11/24 02:56:18;;;;;;;6.88;2.30;;;;;;;9.32;97.39;97519.78;4198932;28;21245;-88
2022/11/24 02:58:21;;;;;;;7.72;2.60;;;;;;;9.33;97.62;97520.59;4184764;28;20206;-87
2022/11/24 03:00:25;;;;;;;4.65;2.40;;;;;;;9.30;97.42;97506.03;4188581;28;20293;-87
2022/11/24 03:02:28;;;;;;;10.10;2.53;;;;;;;9.31;97.72;97518.09;4186767;28;20205;-87
2022/11/24 03:04:32;;;;;;;5.80;2.22;;;;;;;9.30;97.68;97519.03;4201428;28;20256;-87
2022/11/24 03:06:35;;;;;;;8.35;3.00;;;;;;;9.30;97.80;97520.81;4182678;28;20212;-87
2022/11/24 03:08:38;;;;;;;7.43;2.90;;;;;;;9.29;97.39;97514.78;4198092;28;20212;-87
2022/11/24 03:10:41;;;;;;;8.55;2.30;;;;;;;9.29;97.34;97519.16;4187024;28;20663;-87
2022/11/24 03:12:44;;;;;;;8.05;2.42;;;;;;;9.27;98.29;97514.06;4185665;28;20211;-87
2022/11/24 03:14:47;;;;;;;7.80;2.85;;;;;;;9.25;97.62;97528.94;4188614;28;20218;-88
2022/11/24 03:16:51;;;;;;;5.27;2.40;;;;;;;9.20;97.24;97530.22;4206310;28;20236;-87
2022/11/24 03:18:53;;;;;;;5.00;1.80;;;;;;;9.16;97.39;97524.41;4204354;28;20725;-87
2022/11/24 03:20:59;;;;;;;10.07;2.60;;;;;;;9.16;97.48;97534.00;4202464;28;21233;-87
2022/11/24 03:23:02;;;;;;;8.52;3.33;;;;;;;9.17;97.08;97530.44;4185977;28;20706;-87
2022/11/24 03:25:05;;;;;;;8.32;2.75;;;;;;;9.18;97.16;97527.72;4199892;28;20209;-88
2022/11/24 03:27:08;;;;;;;8.07;2.38;;;;;;;9.20;98.08;97533.66;4200857;28;20194;-87
2022/11/24 03:29:11;;;;;;;7.35;2.38;;;;;;;9.20;97.93;97535.41;4193067;28;20202;-87
2022/11/24 03:31:15;;;;;;;7.72;2.70;;;;;;;9.20;97.61;97532.81;4200984;28;20643;-87
2022/11/24 03:33:19;;;;;;;7.85;2.67;;;;;;;9.20;98.17;97541.47;4179795;28;20204;-87
2022/11/24 03:35:23;;;;;;;9.40;2.58;;;;;;;9.21;97.72;97537.91;4204926;28;20212;-87
2022/11/24 03:37:26;;;;;;;6.20;2.30;;;;;;;9.20;97.87;97540.63;4200025;28;20201;-87
2022/11/24 03:39:29;;;;;;;5.80;2.50;;;;;;;9.21;97.92;97537.09;4201867;28;20988;-87
2022/11/24 03:41:32;;;;;;;6.47;2.13;;;;;;;9.23;97.75;97556.00;4186580;28;20635;-87
2022/11/24 03:43:36;;;;;;;10.88;2.25;;;;;;;9.21;97.83;97545.72;4196966;28;20198;-87
2022/11/24 03:45:46;;;;;;;6.82;2.28;;;;;;;9.23;98.04;97551.66;4201104;28;20204;-87
2022/11/24 03:47:50;;;;;;;5.10;2.30;;;;;;;9.23;97.82;97548.19;4183419;28;20208;-87
2022/11/24 03:49:54;;;;;;;7.78;2.92;;;;;;;9.21;97.98;97552.69;4192854;28;20197;-87
2022/11/24 03:51:57;;;;;;;7.27;2.13;;;;;;;9.20;97.96;97558.81;4201962;28;20227;-87
2022/11/24 03:54:07;;;;;;;6.97;2.05;;;;;;;9.17;97.96;97554.69;4185525;28;20651;-87
2022/11/24 03:56:10;;;;;;;8.88;2.08;;;;;;;9.14;97.12;97564.47;4182099;28;20210;-88
2022/11/24 03:58:13;;;;;;;6.65;1.90;;;;;;;9.14;97.72;97565.31;4207299;28;20733;-88
2022/11/24 04:00:17;;;;;;;5.57;1.90;;;;;;;9.10;97.38;97566.47;4199077;28;20202;-88
2022/11/24 04:02:20;;;;;;;5.13;1.80;;;;;;;9.03;97.14;97560.03;4185701;28;20209;-87
2022/11/24 04:04:23;;;;;;;8.55;1.55;;;;;;;9.04;97.93;97563.47;4185028;28;20271;-87
2022/11/24 04:06:28;;;;;;;6.25;1.90;;;;;;;9.02;98.22;97562.72;4202644;28;20244;-88
2022/11/24 04:08:31;;;;;;;5.90;1.70;;;;;;;9.04;97.83;97561.69;4181541;28;20605;-88
2022/11/24 04:10:35;;;;;;;6.32;2.38;;;;;;;9.05;98.18;97567.72;4181511;28;20233;-87
2022/11/24 04:12:43;;;;;;;6.75;1.85;;;;;;;9.03;97.79;97569.59;4183940;28;20660;-88
2022/11/24 04:14:46;;;;;;;4.35;1.70;;;;;;;9.01;98.45;97567.09;4201046;28;20259;-88
2022/11/24 04:16:49;;;;;;;6.20;1.90;;;;;;;9.04;98.53;97581.69;4183870;28;20256;-88
2022/11/24 04:18:53;;;;;;;6.00;2.10;;;;;;;9.08;98.46;97590.91;4181344;28;20210;-87
2022/11/24 04:20:55;;;;;;;6.50;2.50;;;;;;;9.10;98.36;97587.28;4201999;28;20201;-87
2022/11/24 04:23:00;;;;;;;9.52;2.60;;;;;;;9.12;98.27;97594.97;4189537;28;20644;-87
2022/11/24 04:25:04;;;;;;;4.17;1.83;;;;;;;9.12;98.24;97594.97;4190331;28;20624;-87
2022/11/24 04:27:07;;;;;;;6.83;2.50;;;;;;;9.12;97.93;97594.97;4206412;28;20666;-87
2022/11/24 04:29:10;;;;;;;6.40;2.30;;;;;;;9.13;98.18;97596.63;4184726;28;20632;-88
2022/11/24 04:31:13;;;;;;;9.93;2.15;;;;;;;9.14;98.09;97588.72;4212788;28;20257;-87
2022/11/24 04:33:16;;;;;;;6.47;1.80;;;;;;;9.12;97.40;97600.16;4198591;28;20207;-87
2022/11/24 04:35:20;;;;;;;7.55;2.05;;;;;;;9.13;97.36;97597.47;4210798;28;20311;-87
2022/11/24 04:37:23;;;;;;;6.85;1.60;;;;;;;9.17;97.97;97600.66;4192997;28;20250;-87
2022/11/24 04:39:27;;;;;;;5.13;1.50;;;;;;;9.21;97.99;97602.13;4205185;28;20551;-87
2022/11/24 04:41:31;;;;;;;3.70;1.40;;;;;;;9.20;97.89;97606.50;4193328;28;20189;-87
2022/11/24 04:43:34;;;;;;;3.40;1.35;;;;;;;9.22;97.72;97615.03;4191120;28;20206;-87
2022/11/24 04:45:42;;;;;;;8.25;1.70;;;;;;;9.26;97.86;97613.03;4206105;28;20696;-87
2022/11/24 04:47:45;;;;;;;9.53;2.27;;;;;;;9.27;97.79;97615.53;4192898;28;20661;-87
2022/11/24 04:49:48;;;;;;;6.35;1.67;;;;;;;9.28;97.26;97617.19;4196423;28;20702;-87
2022/11/24 04:51:52;;;;;;;5.63;2.17;;;;;;;9.31;97.23;97619.56;4192072;28;20303;-87
2022/11/24 04:53:55;;;;;;;3.67;1.50;;;;;;;9.34;96.49;97613.34;4191282;28;20650;-87
2022/11/24 04:55:59;;;;;;;3.37;1.97;;;;;;;9.36;96.37;97609.66;4191173;28;20659;-87
2022/11/24 04:58:02;;;;;;;7.80;1.60;;;;;;;9.41;96.26;97607.56;4203298;28;20635;-87
2022/11/24 05:00:06;;;;;;;6.90;1.83;;;;;;;9.45;95.96;97609.00;4185582;28;20234;-87
2022/11/24 05:02:10;;;;;;;5.97;2.28;;;;;;;9.48;95.24;97603.59;4187453;28;20650;-87
2022/11/24 05:04:15;;;;;;;5.90;1.90;;;;;;;9.51;95.36;97606.78;4189929;28;20288;-87
2022/11/24 05:06:18;;;;;;;4.00;1.70;;;;;;;9.53;95.56;97597.13;4201192;28;20643;-87
2022/11/24 05:08:21;;;;;;;4.00;1.90;;;;;;;9.56;94.65;97616.88;4198728;28;20229;-88
2022/11/24 05:10:36;;;;;;;9.50;2.47;;;;;;;9.53;94.67;97604.94;4185738;28;20635;-88
2022/11/24 05:12:40;;;;;;;6.33;1.80;;;;;;;9.56;94.94;97616.88;4204543;28;20233;-87
2022/11/24 05:14:49;;;;;;;7.68;2.13;;;;;;;9.59;95.33;97614.06;4209181;28;20646;-87
2022/11/24 05:16:52;;;;;;;4.70;2.00;;;;;;;9.55;94.58;97610.03;4184100;28;20232;-87
2022/11/24 05:18:54;;;;;;;7.60;1.65;;;;;;;9.46;94.14;97605.47;4191862;28;20213;-87
2022/11/24 05:20:58;;;;;;;9.55;1.55;;;;;;;9.41;94.19;97620.56;4203704;28;20698;-87
2022/11/24 05:23:02;;;;;;;8.95;1.90;;;;;;;9.39;94.73;97619.84;4189073;28;20251;-87
2022/11/24 05:25:06;;;;;;;8.83;2.10;;;;;;;9.34;93.74;97611.56;4202586;28;20194;-87
2022/11/24 05:27:09;;;;;;;7.13;2.40;;;;;;;9.34;94.20;97619.38;4191468;28;20643;-87
2022/11/24 05:29:13;;;;;;;5.22;2.10;;;;;;;9.32;94.78;97625.59;4207637;28;20214;-87
2022/11/24 05:31:17;;;;;;;8.82;2.00;;;;;;;9.29;94.98;97628.41;4204525;28;20201;-87
2022/11/24 05:33:21;;;;;;;5.72;2.00;;;;;;;9.22;95.71;97622.00;4189811;28;20252;-87
2022/11/24 05:35:25;;;;;;;12.95;2.20;;;;;;;9.22;96.25;97637.63;4204200;28;20867;-87
2022/11/24 05:37:29;;;;;;;6.00;1.88;;;;;;;9.24;95.62;97641.75;4211464;28;20196;-87
2022/11/24 05:39:32;;;;;;;4.22;1.60;;;;;;;9.23;96.32;97649.66;4204871;28;20197;-88
2022/11/24 05:41:35;;;;;;;10.93;2.42;;;;;;;9.24;96.38;97644.34;4192898;28;20291;-87
2022/11/24 05:43:38;;;;;;;8.60;2.58;;;;;;;9.23;96.22;97640.13;4192366;28;20213;-87
2022/11/24 05:45:43;;;;;;;4.68;1.70;;;;;;;9.20;96.48;97653.34;4185982;28;20236;-87
2022/11/24 05:47:47;;;;;;;6.40;1.93;;;;;;;9.14;97.03;97645.97;4199192;28;20247;-87
2022/11/24 05:49:50;;;;;;;5.00;1.70;;;;;;;9.08;97.13;97648.97;4193757;28;20635;-87
2022/11/24 05:51:53;;;;;;;7.50;2.03;;;;;;;9.04;97.47;97638.91;4202830;28;20197;-87
2022/11/24 05:53:56;;;;;;;6.30;1.67;;;;;;;9.05;97.60;97651.78;4189370;28;20201;-87
2022/11/24 05:56:02;;;;;;;13.85;2.25;;;;;;;9.05;97.89;97649.19;4185534;28;20268;-87
2022/11/24 05:58:07;;;;;;;8.77;2.10;;;;;;;9.03;97.47;97637.22;4201497;28;20633;-87
2022/11/24 06:00:12;;;;;;;7.40;1.90;;;;;;;8.99;97.32;97641.81;4185208;28;20696;-87
2022/11/24 06:02:16;;;;;;;8.77;1.88;;;;;;;8.99;97.22;97630.56;4203784;28;21299;-87
2022/11/24 06:04:19;;;;;;;7.60;1.90;;;;;;;9.03;97.04;97637.22;4203697;28;20790;-87
2022/11/24 06:06:23;;;;;;;9.77;2.40;;;;;;;8.99;97.05;97623.59;4209654;28;20217;-87
2022/11/24 06:08:26;;;;;;;11.68;1.95;;;;;;;8.97;97.47;97622.88;4202770;28;20311;-88
2022/11/24 06:10:33;;;;;;;11.25;1.92;;;;;;;8.99;96.36;97628.81;4188734;28;20707;-88
2022/11/24 06:12:36;;;;;;;6.40;1.85;;;;;;;9.02;96.66;97632.94;4188195;28;20300;-87
2022/11/24 06:14:39;;;;;;;4.65;2.67;;;;;;;9.02;96.51;97633.81;4192067;28;20211;-87
2022/11/24 06:16:42;;;;;;;5.78;1.75;;;;;;;9.06;96.67;97624.00;4205291;28;20251;-87
2022/11/24 06:18:47;;;;;;;8.88;2.47;;;;;;;9.05;96.47;97631.00;4204426;28;20262;-87
2022/11/24 06:20:50;;;;;;;7.13;1.85;;;;;;;9.09;96.43;97637.63;4191430;28;20216;-87
2022/11/24 06:23:12;;;;;;;7.47;2.30;;;;;;;9.12;95.38;97631.38;4219882;28;20196;-87
2022/11/24 06:25:16;;;;;;;8.93;2.00;;;;;;;9.09;95.10;97634.19;4204183;28;20258;-87
2022/11/24 06:27:19;;;;;;;9.10;2.50;;;;;;;9.11;95.92;97634.91;4188150;28;20254;-87
2022/11/24 06:29:22;;;;;;;8.60;2.20;;;;;;;9.10;95.47;97634.09;4204667;28;20213;-87
2022/11/24 06:31:25;;;;;;;9.35;2.45;;;;;;;9.13;95.23;97639.06;4201490;28;20710;-87
2022/11/24 06:33:32;;;;;;;8.27;1.70;;;;;;;9.13;95.09;97646.88;4195750;28;20201;-87
2022/11/24 06:35:36;;;;;;;11.20;2.42;;;;;;;9.12;95.47;97649.59;4210545;28;20223;-88
2022/11/24 06:37:39;;;;;;;7.85;1.75;;;;;;;9.12;94.96;97647.00;4184570;28;20207;-86
2022/11/24 06:39:42;;;;;;;7.95;2.00;;;;;;;9.06;94.62;97644.81;4222534;28;20207;-85
2022/11/24 06:41:45;;;;;;;4.22;1.90;;;;;;;9.04;94.34;97642.31;4183414;28;20443;-86
2022/11/24 06:43:48;;;;;;;3.70;1.40;;;;;;;9.04;94.50;97650.13;4201814;28;20216;-86
2022/11/24 06:45:51;;;;;;;5.60;2.10;;;;;;;8.99;95.08;97657.41;4199871;28;20546;-85
2022/11/24 06:47:55;;;;;;;10.68;2.05;;;;;;;9.01;94.88;97660.72;4202019;28;20862;-85
2022/11/24 06:49:58;;;;;;;8.20;1.92;;;;;;;9.00;94.31;97656.47;4200354;28;20210;-85
2022/11/24 06:52:02;;;;;;;7.50;1.92;;;;;;;8.96;94.11;97662.84;4199504;28;20210;-85
2022/11/24 06:54:06;;;;;;;10.45;2.47;;;;;;;8.95;95.46;97661.16;4197801;28;20303;-85
2022/11/24 06:56:11;;;;;;;7.63;1.80;;;;;;;8.99;95.24;97660.03;4203512;28;20232;-85
2022/11/24 06:58:19;;;;;;;7.57;1.90;;;;;;;8.99;95.61;97665.22;4204470;28;20243;-85
2022/11/24 07:00:28;;;;;;;8.05;2.53;;;;;;;9.01;95.69;97665.94;4186415;28;20202;-86
2022/11/24 07:02:31;;;;;;;8.77;2.55;;;;;;;9.01;95.54;97658.13;4204823;28;20212;-85
2022/11/24 07:04:34;;;;;;;11.48;2.30;;;;;;;8.98;94.90;97666.16;4203537;28;20220;-85
2022/11/24 07:06:38;;;;;;;5.15;1.88;;;;;;;9.00;96.24;97666.88;4204831;28;20208;-85
2022/11/24 07:08:43;;;;;;;8.88;2.08;;;;;;;9.03;95.63;97678.84;4184850;28;20264;-85
2022/11/24 07:10:46;;;;;;;6.45;2.42;;;;;;;8.97;96.79;97681.84;4198470;28;20258;-86
2022/11/24 07:12:49;;;;;;;9.60;3.20;;;;;;;8.93;98.07;97689.03;4183591;28;20750;-85
2022/11/24 07:14:52;;;;;;;9.25;2.40;;;;;;;8.90;99.25;97693.63;4203919;28;20207;-85
2022/11/24 07:16:55;;;;;;;8.45;2.45;;;;;;;8.92;98.07;97691.75;4202793;28;20622;-87
2022/11/24 07:18:58;;;;;;;9.18;2.28;;;;;;;8.90;98.28;97688.44;4187661;28;20202;-86
2022/11/24 07:21:03;;;;;;;5.38;2.17;;;;;;;8.92;98.71;97702.97;4201179;28;20243;-87
2022/11/24 07:23:06;;;;;;;7.50;2.40;;;;;;;8.93;98.19;97709.84;4198651;28;20209;-86
2022/11/24 07:25:13;;;;;;;9.82;2.60;;;;;;;8.92;97.67;97712.56;4190354;28;20201;-87
2022/11/24 07:27:16;;;;;;;9.52;2.58;;;;;;;8.95;99.21;97718.38;4186104;28;20201;-87
2022/11/24 07:29:19;;;;;;;7.63;3.95;;;;;;;9.02;98.31;97723.97;4201840;28;20228;-86
2022/11/24 07:31:24;;;;;;;9.52;3.20;;;;;;;9.04;98.55;97724.72;4179303;28;20935;-86
2022/11/24 07:33:27;;;;;;;8.93;2.00;;;;;;;9.05;98.29;97736.78;4187181;28;20291;-86
2022/11/24 07:35:30;;;;;;;9.07;2.22;;;;;;;9.08;98.50;97733.97;4204885;28;20215;-86
2022/11/24 07:37:34;;;;;;;5.60;2.20;;;;;;;9.05;98.53;97737.63;4185382;28;20225;-86
2022/11/24 07:39:37;;;;;;;7.15;2.00;;;;;;;9.06;100.00;97746.25;4182946;28;20214;-85
2022/11/24 07:41:41;;;;;;;7.63;2.30;;;;;;;9.01;99.07;97750.94;4204836;28;20253;-85
2022/11/24 07:43:44;;;;;;;7.20;2.05;;;;;;;9.05;99.99;97760.19;4188460;28;21051;-88
2022/11/24 07:45:51;;;;;;;5.45;2.00;;;;;;;9.03;99.69;97762.88;4194737;28;20205;-88
2022/11/24 07:47:54;;;;;;;6.18;2.30;;;;;;;9.00;100.00;97759.66;4186064;28;20295;-87
2022/11/24 07:49:57;;;;;;;8.05;2.60;;;;;;;9.00;100.00;97764.88;4203376;28;20710;-88
2022/11/24 07:52:00;;;;;;;9.90;2.35;;;;;;;8.96;100.00;97766.84;4198701;28;20241;-87
2022/11/24 07:54:04;;;;;;;14.75;3.05;;;;;;;8.91;100.00;97770.69;4196385;28;20281;-89
2022/11/24 07:56:07;;;;;;;9.50;3.33;;;;;;;8.86;100.00;97780.56;4198284;28;20696;-88
2022/11/24 07:58:14;;;;;;;12.85;3.92;;;;;;;8.83;100.00;97778.16;4188815;28;20202;-88
2022/11/24 08:00:18;;;;;;;8.00;2.50;;;;;;;8.83;100.00;97783.38;4180366;28;20209;-89
2022/11/24 08:02:21;;;;;;;9.30;2.70;;;;;;;8.78;100.00;97787.19;4194065;28;21266;-89
2022/11/24 08:04:24;;;;;;;8.88;2.38;;;;;;;8.66;100.00;97780.19;4188042;28;20384;-90
2022/11/24 08:06:28;;;;;;;10.70;2.40;;;;;;;8.67;100.00;97787.91;4206493;28;20219;-89
2022/11/24 08:08:42;;;;;;;13.27;3.95;;;;;;;8.66;100.00;97788.84;4182365;28;20216;-88
2022/11/24 08:10:45;;;;;;;9.77;3.60;;;;;;;8.63;100.00;97796.00;4178708;28;20295;-87
2022/11/24 08:12:48;;;;;;;9.27;2.17;;;;;;;8.59;100.00;97792.78;4181970;28;20339;-90
2022/11/24 08:14:53;;;;;;;7.40;2.67;;;;;;;8.56;100.00;97792.16;4187866;28;20227;-85
2022/11/24 08:16:57;;;;;;;5.72;2.75;;;;;;;8.53;100.00;97787.16;4182859;28;20225;-84
2022/11/24 08:19:01;;;;;;;6.40;2.13;;;;;;;8.51;100.00;97784.66;4196389;28;20213;-86
2022/11/24 08:21:04;;;;;;;9.45;2.50;;;;;;;8.53;100.00;97781.97;4203204;28;20800;-84
2022/11/24 08:23:07;;;;;;;11.25;2.28;;;;;;;8.50;100.00;97787.34;4187262;28;20308;-85
2022/11/24 08:25:13;;;;;;;9.52;3.58;;;;;;;8.55;100.00;97782.69;4201472;28;20750;-84
2022/11/24 08:27:16;;;;;;;10.18;2.97;;;;;;;8.58;100.00;97785.91;4196109;28;20197;-84
2022/11/24 08:29:19;;;;;;;9.55;2.38;;;;;;;8.65;100.00;97792.38;4188222;28;20205;-84
2022/11/24 08:31:25;;;;;;;10.90;2.22;;;;;;;8.63;100.00;97796.84;4199505;28;20327;-84
2022/11/24 08:33:30;;;;;;;5.10;1.60;;;;;;;8.63;100.00;97801.19;4202180;28;20214;-84
2022/11/24 08:35:35;;;;;;;8.07;2.30;;;;;;;8.65;100.00;97807.97;4199496;28;20261;-84
2022/11/24 08:37:39;;;;;;;9.45;2.67;;;;;;;8.66;100.00;97811.41;4204245;28;20225;-84
2022/11/24 08:39:42;;;;;;;10.38;2.42;;;;;;;8.70;100.00;97812.88;4218550;28;20702;-84
2022/11/24 08:41:45;;;;;;;11.27;2.72;;;;;;;8.75;100.00;97806.44;4203059;28;20204;-84
2022/11/24 08:43:48;;;;;;;8.60;2.28;;;;;;;8.74;100.00;97811.75;4206165;28;20207;-84
2022/11/24 08:45:51;;;;;;;8.52;2.30;;;;;;;8.77;100.00;97816.75;4196290;28;20246;-84
2022/11/24 08:47:56;;;;;;;6.75;2.20;;;;;;;8.80;100.00;97816.56;4206203;28;20244;-84
2022/11/24 08:49:59;;;;;;;5.22;2.15;;;;;;;8.82;100.00;97819.88;4185175;28;20213;-85
2022/11/24 08:52:02;;;;;;;7.05;2.25;;;;;;;8.82;100.00;97820.69;4184110;28;20209;-84
2022/11/24 08:54:06;;;;;;;5.63;2.22;;;;;;;8.82;100.00;97809.47;4195897;28;20219;-84
2022/11/24 08:56:10;;;;;;;7.53;2.40;;;;;;;8.84;100.00;97807.59;4182231;28;20305;-84
2022/11/24 08:58:13;;;;;;;5.72;2.20;;;;;;;8.87;100.00;97820.41;4195819;28;20217;-84
2022/11/24 09:00:21;;;;;;;11.00;2.25;;;;;;;8.93;100.00;97823.44;4194490;28;20208;-84
2022/11/24 09:02:26;;;;;;;8.95;2.65;;;;;;;9.03;100.00;97832.28;4187063;28;20201;-85
2022/11/24 09:04:30;;;;;;;7.32;2.28;;;;;;;9.09;100.00;97829.28;4182990;28;20396;-84
2022/11/24 09:06:34;;;;;;;6.97;2.83;;;;;;;9.12;100.00;97831.69;4199827;28;20216;-84
2022/11/24 09:08:37;;;;;;;7.22;2.70;;;;;;;9.14;100.00;97833.25;4202945;28;21018;-84
2022/11/24 09:10:41;;;;;;;5.28;2.47;;;;;;;9.16;100.00;97835.75;4194812;28;20213;-84
2022/11/24 09:12:45;;;;;;;6.00;1.98;;;;;;;9.24;100.00;97838.66;4185062;28;20221;-85
2022/11/24 09:14:48;;;;;;;10.60;2.45;;;;;;;9.29;100.00;97840.03;4198454;28;20193;-85
2022/11/24 09:16:51;;;;;;;7.15;2.50;;;;;;;9.37;100.00;97844.69;4204582;28;20212;-84
2022/11/24 09:18:55;;;;;;;9.60;2.60;;;;;;;9.44;100.00;97846.78;4200007;28;20205;-84
2022/11/24 09:21:08;;;;;;;5.63;2.10;;;;;;;9.46;100.00;97855.34;4203365;28;20267;-84
2022/11/24 09:23:11;;;;;;;5.85;1.83;;;;;;;9.53;100.00;97853.97;4197026;28;21233;-84
2022/11/24 09:25:14;;;;;;;18.85;13.40;;;;;;;9.61;100.00;97867.31;4200606;28;20229;-84
2022/11/24 09:27:17;;;;;;;6.05;2.10;;;;;;;9.68;100.00;97876.34;4201625;28;20193;-84
2022/11/24 09:29:20;;;;;;;6.93;1.83;;;;;;;9.74;100.00;97873.34;4201828;28;20274;-84
2022/11/24 09:31:25;;;;;;;6.57;1.90;;;;;;;9.81;100.00;97878.03;4202757;28;20615;-84
2022/11/24 09:33:28;;;;;;;6.85;1.85;;;;;;;9.79;100.00;97879.06;4198460;28;20300;-84
2022/11/24 09:35:31;;;;;;;3.15;1.20;;;;;;;9.80;98.43;97878.13;4201846;28;20204;-84
2022/11/24 09:37:36;;;;;;;2.90;1.10;;;;;;;9.82;98.78;97882.31;4206553;28;20269;-83
2022/11/24 09:39:39;;;;;;;5.50;1.73;;;;;;;9.90;98.56;97888.63;4188682;28;21241;-84
2022/11/24 09:41:54;;;;;;;8.33;1.50;;;;;;;9.99;99.79;97889.81;4188979;28;20671;-83
2022/11/24 09:44:01;;;;;;;2.58;1.27;;;;;;;10.03;98.72;97893.88;4180731;28;20659;-83
2022/11/24 09:46:07;;;;;;;5.97;2.53;;;;;;;10.08;99.45;97897.81;4202661;28;20613;-83